Time,TemperatureF,DewpointF,PressureIn,WindDirection,WindDirectionDegrees,WindSpeedMPH,WindSpeedGustMPH,Humidity,HourlyPrecipIn,Conditions,Clouds,dailyrainin,SoftwareType,DateUTC
2013-07-23 00:01:00,63.0,59.0,-100.00,SE,135,2.0,11.0,87,-99.99,,,-99.99,,2013-07-23 05:01:00,
2013-07-23 00:22:00,63.0,59.0,-100.00,SE,135,2.0,11.0,87,-99.99,,,-99.99,,2013-07-23 05:22:00,
2013-07-23 00:33:00,63.0,59.0,-100.00,SE,135,2.0,11.0,87,-99.99,,,-99.99,,2013-07-23 05:33:00,
2013-07-23 00:44:00,63.0,59.0,-100.00,SE,135,2.0,11.0,87,-99.99,,,-99.99,,2013-07-23 05:44:00,
2013-07-23 00:52:00,63.0,59.0,-100.00,SE,135,2.0,11.0,87,-99.99,,,-99.99,,2013-07-23 05:52:00,
2013-07-23 01:00:00,63.0,58.0,-100.00,SSE,155,1.0,5.0,86,-99.99,,,-99.99,,2013-07-23 06:00:00,
2013-07-23 01:22:00,63.0,58.0,-100.00,SSE,155,1.0,5.0,86,-99.99,,,-99.99,,2013-07-23 06:22:00,
2013-07-23 01:33:00,63.0,58.0,-100.00,SSE,155,1.0,5.0,86,-99.99,,,-99.99,,2013-07-23 06:33:00,
2013-07-23 01:42:00,63.0,58.0,-100.00,SSE,155,1.0,5.0,86,-99.99,,,-99.99,,2013-07-23 06:42:00,
2013-07-23 01:52:00,63.0,58.0,-100.00,SSE,155,1.0,5.0,86,-99.99,,,-99.99,,2013-07-23 06:52:00,
2013-07-23 02:01:00,62.0,58.0,-100.00,WSW,250,2.0,6.0,86,-99.99,,,-99.99,,2013-07-23 07:01:00,
2013-07-23 02:22:00,62.0,58.0,-100.00,WSW,250,2.0,6.0,86,-99.99,,,-99.99,,2013-07-23 07:22:00,
2013-07-23 02:33:00,62.0,58.0,-100.00,WSW,250,2.0,6.0,86,-99.99,,,-99.99,,2013-07-23 07:33:00,
2013-07-23 02:42:00,62.0,58.0,-100.00,WSW,250,2.0,6.0,86,-99.99,,,-99.99,,2013-07-23 07:42:00,
2013-07-23 02:52:00,62.0,58.0,-100.00,WSW,250,2.0,6.0,86,-99.99,,,-99.99,,2013-07-23 07:52:00,
2013-07-23 03:00:00,62.0,58.0,-100.00,WSW,255,1.0,7.0,87,-99.99,,,-99.99,,2013-07-23 08:00:00,
2013-07-23 03:22:00,62.0,58.0,-100.00,WSW,255,1.0,7.0,87,-99.99,,,-99.99,,2013-07-23 08:22:00,
2013-07-23 03:33:00,62.0,58.0,-100.00,WSW,255,1.0,7.0,87,-99.99,,,-99.99,,2013-07-23 08:33:00,
2013-07-23 03:43:00,62.0,58.0,-100.00,WSW,255,1.0,7.0,87,-99.99,,,-99.99,,2013-07-23 08:43:00,
2013-07-23 03:52:00,62.0,58.0,-100.00,WSW,255,1.0,7.0,87,-99.99,,,-99.99,,2013-07-23 08:52:00,
2013-07-23 04:00:00,67.0,61.0,-100.00,NW,325,9.0,15.0,81,-99.99,,,-99.99,,2013-07-23 09:00:00,
2013-07-23 04:22:00,67.0,61.0,-100.00,NW,325,9.0,15.0,81,-99.99,,,-99.99,,2013-07-23 09:22:00,
2013-07-23 04:33:00,67.0,61.0,-100.00,NW,325,9.0,15.0,81,-99.99,,,-99.99,,2013-07-23 09:33:00,
2013-07-23 04:43:00,67.0,61.0,-100.00,NW,325,9.0,15.0,81,-99.99,,,-99.99,,2013-07-23 09:43:00,
2013-07-23 04:53:00,67.0,61.0,-100.00,NW,325,9.0,15.0,81,-99.99,,,-99.99,,2013-07-23 09:53:00,
2013-07-23 05:01:00,65.0,60.0,-100.00,NNW,330,9.0,13.0,84,-99.99,,,-99.99,,2013-07-23 10:01:00,
2013-07-23 05:22:00,65.0,60.0,-100.00,NNW,330,9.0,13.0,84,-99.99,,,-99.99,,2013-07-23 10:22:00,
2013-07-23 05:32:00,65.0,60.0,-100.00,NNW,330,9.0,13.0,84,-99.99,,,-99.99,,2013-07-23 10:32:00,
2013-07-23 05:44:00,65.0,60.0,-100.00,NNW,330,9.0,13.0,84,-99.99,,,-99.99,,2013-07-23 10:44:00,
2013-07-23 05:52:00,65.0,60.0,-100.00,NNW,330,9.0,13.0,84,-99.99,,,-99.99,,2013-07-23 10:52:00,
2013-07-23 06:00:00,64.0,57.0,-100.00,NW,325,9.0,18.0,79,-99.99,,,-99.99,,2013-07-23 11:00:00,
2013-07-23 06:22:00,64.0,57.0,-100.00,NW,325,9.0,18.0,79,-99.99,,,-99.99,,2013-07-23 11:22:00,
2013-07-23 06:32:00,64.0,57.0,-100.00,NW,325,9.0,18.0,79,-99.99,,,-99.99,,2013-07-23 11:32:00,
2013-07-23 06:43:00,64.0,57.0,-100.00,NW,325,9.0,18.0,79,-99.99,,,-99.99,,2013-07-23 11:43:00,
2013-07-23 06:52:00,64.0,57.0,-100.00,NW,325,9.0,18.0,79,-99.99,,,-99.99,,2013-07-23 11:52:00,
2013-07-23 07:00:00,65.0,54.0,-100.00,NNW,330,9.0,15.0,70,-99.99,,,-99.99,,2013-07-23 12:00:00,
2013-07-23 07:22:00,65.0,54.0,-100.00,NNW,330,9.0,15.0,70,-99.99,,,-99.99,,2013-07-23 12:22:00,
2013-07-23 07:33:00,65.0,54.0,-100.00,NNW,330,9.0,15.0,70,-99.99,,,-99.99,,2013-07-23 12:33:00,
2013-07-23 07:43:00,65.0,54.0,-100.00,NNW,330,9.0,15.0,70,-99.99,,,-99.99,,2013-07-23 12:43:00,
2013-07-23 08:01:00,66.0,53.0,-100.00,NNW,335,11.0,19.0,62,-99.99,,,-99.99,,2013-07-23 13:01:00,
2013-07-23 08:22:00,66.0,53.0,-100.00,NNW,335,11.0,19.0,62,-99.99,,,-99.99,,2013-07-23 13:22:00,
2013-07-23 08:32:00,66.0,53.0,-100.00,NNW,335,11.0,19.0,62,-99.99,,,-99.99,,2013-07-23 13:32:00,
2013-07-23 08:43:00,66.0,53.0,-100.00,NNW,335,11.0,19.0,62,-99.99,,,-99.99,,2013-07-23 13:43:00,
2013-07-23 08:52:00,66.0,53.0,-100.00,NNW,335,11.0,19.0,62,-99.99,,,-99.99,,2013-07-23 13:52:00,
2013-07-23 09:00:00,67.0,50.0,-100.00,North,355,10.0,18.0,55,-99.99,,,-99.99,,2013-07-23 14:00:00,
2013-07-23 09:22:00,67.0,50.0,-100.00,North,355,10.0,18.0,55,-99.99,,,-99.99,,2013-07-23 14:22:00,
2013-07-23 09:33:00,67.0,50.0,-100.00,North,355,10.0,18.0,55,-99.99,,,-99.99,,2013-07-23 14:33:00,
2013-07-23 09:44:00,67.0,50.0,-100.00,North,355,10.0,18.0,55,-99.99,,,-99.99,,2013-07-23 14:44:00,
2013-07-23 09:53:00,67.0,50.0,-100.00,North,355,10.0,18.0,55,-99.99,,,-99.99,,2013-07-23 14:53:00,
2013-07-23 10:00:00,70.0,49.0,-100.00,North,0,11.0,21.0,48,-99.99,,,-99.99,,2013-07-23 15:00:00,
2013-07-23 10:24:00,70.0,49.0,-100.00,North,0,11.0,21.0,48,-99.99,,,-99.99,,2013-07-23 15:24:00,
2013-07-23 10:32:00,70.0,49.0,-100.00,North,0,11.0,21.0,48,-99.99,,,-99.99,,2013-07-23 15:32:00,
2013-07-23 10:43:00,70.0,49.0,-100.00,North,0,11.0,21.0,48,-99.99,,,-99.99,,2013-07-23 15:43:00,
2013-07-23 10:52:00,70.0,49.0,-100.00,North,0,11.0,21.0,48,-99.99,,,-99.99,,2013-07-23 15:52:00,
2013-07-23 11:00:00,70.0,48.0,-100.00,NW,315,10.0,19.0,47,-99.99,,,-99.99,,2013-07-23 16:00:00,
2013-07-23 11:22:00,70.0,48.0,-100.00,NW,315,10.0,19.0,47,-99.99,,,-99.99,,2013-07-23 16:22:00,
2013-07-23 11:33:00,70.0,48.0,-100.00,NW,315,10.0,19.0,47,-99.99,,,-99.99,,2013-07-23 16:33:00,
2013-07-23 11:43:00,70.0,48.0,-100.00,NW,315,10.0,19.0,47,-99.99,,,-99.99,,2013-07-23 16:43:00,
2013-07-23 11:52:00,70.0,48.0,-100.00,NW,315,10.0,19.0,47,-99.99,,,-99.99,,2013-07-23 16:52:00,
2013-07-23 12:00:00,71.0,48.0,-100.00,NNW,330,10.0,17.0,43,-99.99,,,-99.99,,2013-07-23 17:00:00,
2013-07-23 12:22:00,71.0,48.0,-100.00,NNW,330,10.0,17.0,43,-99.99,,,-99.99,,2013-07-23 17:22:00,
2013-07-23 12:32:00,71.0,48.0,-100.00,NNW,330,10.0,17.0,43,-99.99,,,-99.99,,2013-07-23 17:32:00,
2013-07-23 12:42:00,71.0,48.0,-100.00,NNW,330,10.0,17.0,43,-99.99,,,-99.99,,2013-07-23 17:42:00,
2013-07-23 12:56:00,71.0,48.0,-100.00,NNW,330,10.0,17.0,43,-99.99,,,-99.99,,2013-07-23 17:56:00,
2013-07-23 13:00:00,73.0,48.0,-100.00,NW,320,7.0,15.0,42,-99.99,,,-99.99,,2013-07-23 18:00:00,
2013-07-23 13:26:00,73.0,48.0,-100.00,NW,320,7.0,15.0,42,-99.99,,,-99.99,,2013-07-23 18:26:00,
2013-07-23 13:49:00,73.0,48.0,-100.00,NW,320,7.0,15.0,42,-99.99,,,-99.99,,2013-07-23 18:49:00,
2013-07-23 14:01:00,74.0,49.0,-100.00,NW,325,10.0,17.0,41,-99.99,,,-99.99,,2013-07-23 19:01:00,
2013-07-23 14:28:00,74.0,49.0,-100.00,NW,325,10.0,17.0,41,-99.99,,,-99.99,,2013-07-23 19:28:00,
2013-07-23 14:35:00,74.0,49.0,-100.00,NW,325,10.0,17.0,41,-99.99,,,-99.99,,2013-07-23 19:35:00,
2013-07-23 14:49:00,74.0,49.0,-100.00,NW,325,10.0,17.0,41,-99.99,,,-99.99,,2013-07-23 19:49:00,
2013-07-23 14:55:00,74.0,49.0,-100.00,NW,325,10.0,17.0,41,-99.99,,,-99.99,,2013-07-23 19:55:00,
2013-07-23 15:00:00,74.0,48.0,-100.00,NW,315,11.0,18.0,40,-99.99,,,-99.99,,2013-07-23 20:00:00,
2013-07-23 15:25:00,74.0,48.0,-100.00,NW,315,11.0,18.0,40,-99.99,,,-99.99,,2013-07-23 20:25:00,
2013-07-23 15:35:00,74.0,48.0,-100.00,NW,315,11.0,18.0,40,-99.99,,,-99.99,,2013-07-23 20:35:00,
2013-07-23 15:47:00,74.0,48.0,-100.00,NW,315,11.0,18.0,40,-99.99,,,-99.99,,2013-07-23 20:47:00,
2013-07-23 15:59:00,74.0,48.0,-100.00,NW,315,11.0,18.0,40,-99.99,,,-99.99,,2013-07-23 20:59:00,
2013-07-23 16:00:00,74.0,47.0,-100.00,NNW,330,9.0,17.0,38,-99.99,,,-99.99,,2013-07-23 21:00:00,
2013-07-23 16:24:00,74.0,47.0,-100.00,NNW,330,9.0,17.0,38,-99.99,,,-99.99,,2013-07-23 21:24:00,
2013-07-23 16:48:00,74.0,47.0,-100.00,NNW,330,9.0,17.0,38,-99.99,,,-99.99,,2013-07-23 21:48:00,
2013-07-23 16:57:00,74.0,47.0,-100.00,NNW,330,9.0,17.0,38,-99.99,,,-99.99,,2013-07-23 21:57:00,
2013-07-23 17:24:00,74.0,48.0,-100.00,North,0,8.0,17.0,40,-99.99,,,-99.99,,2013-07-23 22:24:00,
2013-07-23 17:36:00,74.0,48.0,-100.00,North,0,8.0,17.0,40,-99.99,,,-99.99,,2013-07-23 22:36:00,
2013-07-23 17:47:00,74.0,48.0,-100.00,North,0,8.0,17.0,40,-99.99,,,-99.99,,2013-07-23 22:47:00,
2013-07-23 18:26:00,72.0,47.0,-100.00,North,0,9.0,16.0,41,-99.99,,,-99.99,,2013-07-23 23:26:00,
2013-07-23 18:37:00,72.0,47.0,-100.00,North,0,9.0,16.0,41,-99.99,,,-99.99,,2013-07-23 23:37:00,
2013-07-23 18:46:00,72.0,47.0,-100.00,North,0,9.0,16.0,41,-99.99,,,-99.99,,2013-07-23 23:46:00,
2013-07-23 19:00:00,71.0,47.0,-100.00,North,0,6.0,12.0,43,-99.99,,,-99.99,,2013-07-24 00:00:00,
2013-07-23 19:26:00,71.0,47.0,-100.00,North,0,6.0,12.0,43,-99.99,,,-99.99,,2013-07-24 00:26:00,
2013-07-23 19:34:00,71.0,47.0,-100.00,North,0,6.0,12.0,43,-99.99,,,-99.99,,2013-07-24 00:34:00,
2013-07-23 19:50:00,71.0,47.0,-100.00,North,0,6.0,12.0,43,-99.99,,,-99.99,,2013-07-24 00:50:00,
2013-07-23 19:58:00,71.0,47.0,-100.00,North,0,6.0,12.0,43,-99.99,,,-99.99,,2013-07-24 00:58:00,
2013-07-23 20:00:00,67.0,46.0,-100.00,North,0,3.0,10.0,47,-99.99,,,-99.99,,2013-07-24 01:00:00,
2013-07-23 20:25:00,67.0,46.0,-100.00,North,0,3.0,10.0,47,-99.99,,,-99.99,,2013-07-24 01:25:00,
2013-07-23 20:35:00,67.0,46.0,-100.00,North,0,3.0,10.0,47,-99.99,,,-99.99,,2013-07-24 01:35:00,
2013-07-23 21:01:00,61.0,49.0,-100.00,WNW,300,2.0,4.0,64,-99.99,,,-99.99,,2013-07-24 02:01:00,
2013-07-23 21:40:00,61.0,49.0,-100.00,WNW,300,2.0,4.0,64,-99.99,,,-99.99,,2013-07-24 02:40:00,
2013-07-23 21:48:00,61.0,49.0,-100.00,WNW,300,2.0,4.0,64,-99.99,,,-99.99,,2013-07-24 02:48:00,
2013-07-23 21:56:00,61.0,49.0,-100.00,WNW,300,2.0,4.0,64,-99.99,,,-99.99,,2013-07-24 02:56:00,
2013-07-23 22:00:00,57.0,52.0,-100.00,NW,315,2.0,3.0,82,-99.99,,,-99.99,,2013-07-24 03:00:00,
2013-07-23 22:24:00,57.0,52.0,-100.00,NW,315,2.0,3.0,82,-99.99,,,-99.99,,2013-07-24 03:24:00,
2013-07-23 22:46:00,57.0,52.0,-100.00,NW,315,2.0,3.0,82,-99.99,,,-99.99,,2013-07-24 03:46:00,
2013-07-23 23:00:00,55.0,51.0,-100.00,WNW,295,1.0,2.0,87,-99.99,,,-99.99,,2013-07-24 04:00:00,
2013-07-23 23:22:00,55.0,51.0,-100.00,WNW,295,1.0,2.0,87,-99.99,,,-99.99,,2013-07-24 04:22:00,
2013-07-23 23:32:00,55.0,51.0,-100.00,WNW,295,1.0,2.0,87,-99.99,,,-99.99,,2013-07-24 04:32:00,
2013-07-23 23:43:00,55.0,51.0,-100.00,WNW,295,1.0,2.0,87,-99.99,,,-99.99,,2013-07-24 04:43:00,
2013-07-23 23:53:00,55.0,51.0,-100.00,WNW,295,1.0,2.0,87,-99.99,,,-99.99,,2013-07-24 04:53:00,